Erhard, Minnesota
Current Conditions -  °F | °C
As of 4:15 AM on Sunday 26 Oct 2014 (Local Time) from KFFM Reporting Station
Clear Clear  
Wind Chill: 39°   Ceiling: Unl
Heat Index: 43°   Visibility: 10mi
Dew Point: 25°   Wind: 7mph
Humidity: 49%   Direction: 120°ESE
Pressure: 29.98"   Gusts: NA
Location:  46.49°N, 96.1°W
Report Text: KFFM 260915Z AUTO 12006KT 10SM CLR 06/M04 A2998 RMK AO2
Loading
Personal Weather Stations






























Interactive Weather Map
Tropical Storm Tracking
New forecast layout! Learn more

10-Day Weather Forecast

Advertisements
Track Severe Weather on mobile